Flight Track Log - Related Links

Times and Time Zones

All times are in EDT time to prevent confusion due to time zone crossing. See the N27XP flight status page for this flight to view local times or setup timezone preferences in your user account.

Time Position Orientation Groundspeed Altitude Reporting Facility
EDT Latitude Longitude Course Direction KTS MPH feet Rate Location/Type
Mon 03:46:00 PM 35.7327 -79.0477 34° Northeast  Level Estimated
Mon 03:47:00 PM 35.8039 -78.9710 41° Northeast  Level FlightAware
Mon 03:48:00 PM 35.8751 -78.8942 41° Northeast  Level FlightAware
Mon 03:49:00 PM 35.9462 -78.8173 41° Northeast  Level FlightAware
Mon 03:50:00 PM 36.0291 -78.7613 39° Northeast  Level Estimated
Mon 03:51:00 PM 36.1120 -78.7051 35° Northeast  Level Estimated
Mon 03:52:00 PM 36.1833 -78.6282 41° Northeast  Level FlightAware
Mon 03:53:00 PM 36.2546 -78.5512 41° Northeast  Level FlightAware
Mon 03:54:00 PM 36.3258 -78.4741 41° Northeast  Level FlightAware
Mon 03:55:00 PM 36.4093 -78.4192 35° Northeast  Level Estimated
Mon 03:56:00 PM 36.4832 -78.3458 39° Northeast  Level FlightAware
Mon 03:57:00 PM 36.5570 -78.2723 39° Northeast  Level FlightAware
Mon 03:58:00 PM 36.6307 -78.1987 39° Northeast  Level FlightAware
Mon 03:59:00 PM 36.7045 -78.1249 39° Northeast  Level FlightAware
Mon 04:00:00 PM 36.7781 -78.0510 39° Northeast  Level FlightAware
Mon 04:01:00 PM 36.8518 -77.9770 39° Northeast  Level FlightAware
Mon 04:02:00 PM 36.9254 -77.9028 39° Northeast  Level FlightAware
Mon 04:03:00 PM 36.9989 -77.8284 39° Northeast  Level FlightAware
Mon 04:04:00 PM 37.0845 -77.7781 North  Level Estimated
Mon 04:05:00 PM 37.1653 -77.7166 31° Northeast  Level FlightAware
Mon 04:06:00 PM 37.2510 -77.6665 11° North  Level Estimated
Mon 04:07:00 PM 37.3362 -77.6151 26° Northeast  Level FlightAware
Mon 04:08:00 PM 37.4214 -77.5636 26° Northeast  Level FlightAware
Mon 04:09:00 PM 37.5071 -77.5133 North  Level Estimated
Mon 04:10:00 PM 37.5928 -77.4629 North  Level Estimated
Mon 04:11:00 PM 37.6784 -77.4123 North  Level Estimated
Mon 04:12:00 PM 37.7640 -77.3616 15° North  Level Estimated
Mon 04:13:00 PM 37.8496 -77.3109 38° Northeast  Level Estimated
Mon 04:14:00 PM 37.9352 -77.2600 48° Northeast  Level Estimated
Mon 04:15:00 PM 38.0207 -77.2089 45° Northeast  Level Estimated
Mon 04:16:00 PM 38.1043 -77.1529 28° Northeast  Level FlightAware
Mon 04:17:00 PM 38.1899 -77.1020 49° Northeast  Level Estimated
Mon 04:18:00 PM 38.2756 -77.0509 64° Northeast  Level Estimated
Mon 04:19:00 PM 38.3611 -76.9998 57° Northeast  Level Estimated
Mon 04:20:00 PM 38.4467 -76.9485 349° North  Level Estimated
Mon 04:21:00 PM 38.5322 -76.8971 21° North  Level Estimated
Mon 04:22:00 PM 38.6178 -76.8456 17° North  Level Estimated
Mon 04:22:50 PM 35.4022 -79.2156 17° North 304 350 8,900  Level Washington Center
Mon 04:23:00 PM 38.7033 -76.7939 21° North  Level Estimated
Mon 04:23:50 PM 35.4686 -79.1547 37° Northeast 321 369 10,700  Level Washington Center
Mon 04:24:00 PM 38.7887 -76.7421 21° North  Level Estimated
Mon 04:24:48 PM 35.5544 -79.0744 37° Northeast 342 394 12,800  Level Washington Center
Mon 04:25:00 PM 38.8742 -76.6903 17° North  Level Estimated
Mon 04:25:49 PM 35.6400 -79.0014 35° Northeast 354 407 14,500  Level Washington Center
Mon 04:26:00 PM 38.9596 -76.6382 17° North  Level Estimated
Mon 04:26:49 PM 35.7319 -78.9236 34° Northeast 376 433 15,900  Level Washington Center
Mon 04:27:00 PM 39.0450 -76.5861 17° North  Level Estimated
Mon 04:27:49 PM 35.8242 -78.8403 36° Northeast 400 460 17,800  Level Washington Center
Mon 04:28:51 PM 35.9181 -78.7569 36° Northeast 405 466 18,800 1,160 Climbing Washington Center
Mon 04:29:48 PM 36.0164 -78.6711 35° Northeast 415 478 20,100 1,436 Climbing Washington Center
Mon 04:30:48 PM 36.1122 -78.5872 35° Northeast 421 484 21,600 1,426 Climbing Washington Center
Mon 04:31:50 PM 36.2106 -78.5008 35° Northeast 421 484 23,000 1,250 Climbing Washington Center
Mon 04:32:48 PM 36.3106 -78.4119 36° Northeast 426 490 24,100 1,160 Climbing Washington Center
Mon 04:33:49 PM 36.4108 -78.3200 36° Northeast 438 504 25,300 1,140 Climbing Washington Center
Mon 04:34:49 PM 36.5150 -78.2306 35° Northeast 438 504 26,400 843 Climbing Washington Center
Mon 04:35:50 PM 36.6044 -78.1456 37° Northeast 444 511 27,000 298 Climbing Washington Center
Mon 04:36:50 PM 36.7153 -78.0456 36° Northeast 459 528 27,000  Level Washington Center
Mon 04:37:48 PM 36.8278 -77.9428 36° Northeast 482 555 27,000  Level Washington Center
Mon 04:38:48 PM 36.9522 -77.8661 26° Northeast 492 566 27,000  Level Washington Center
Mon 04:39:48 PM 37.0786 -77.8047 21° North 492 566 27,000  Level Washington Center
Mon 04:40:50 PM 37.2050 -77.7406 22° Northeast 486 559 27,000  Level Washington Center
Mon 04:41:48 PM 37.3292 -77.6786 22° Northeast 476 548 27,000  Level Washington Center
Mon 04:42:49 PM 37.4575 -77.6167 21° North 476 548 27,000 -934 Level Washington Center
Mon 04:43:50 PM 37.5881 -77.5469 23° Northeast 487 560 25,100 -2,017 Descending Washington Center
Mon 04:44:48 PM 37.7142 -77.4844 21° North 487 560 23,000 -1,059 Descending Washington Center
Mon 04:45:49 PM 37.8339 -77.4244 22° Northeast 475 547 23,000 -694 Level Washington Center
Mon 04:46:49 PM 37.9494 -77.3614 23° Northeast 462 532 21,600 -1,587 Descending Washington Center
Mon 04:47:50 PM 38.0692 -77.3036 21° North 456 525 19,800 -1,835 Descending Washington Center
Mon 04:48:50 PM 38.1828 -77.2453 22° Northeast 450 518 17,900 -1,831 Descending Washington Center
Mon 04:49:48 PM 38.2961 -77.1869 22° Northeast 439 505 16,200 -1,627 Descending Washington Center
Mon 04:50:48 PM 38.3992 -77.1150 29° Northeast 433 498 14,700 -1,750 Descending Washington Center
Mon 04:51:48 PM 38.4839 -77.0158 42° Northeast 416 479 12,700 -1,686 Descending Washington Center
Mon 04:52:49 PM 38.5619 -76.9219 43° Northeast 402 463 11,300 -1,289 Descending Washington Center
Mon 04:53:49 PM 38.6339 -76.8328 44° Northeast 378 435 10,100 -1,184 Descending Washington Center
Mon 04:55:21 PM 38.7333 -76.6833 50° Northeast 324 373 8,300 -1,224 Descending Potomac TRACON
Mon 04:56:21 PM 38.7667 -76.6000 63° Northeast 308 354 7,000 -1,150 Descending Potomac TRACON
Mon 04:57:21 PM 38.8333 -76.5333 38° Northeast 298 343 6,000 -950 Descending Potomac TRACON
Mon 04:58:21 PM 38.9000 -76.5000 21° North 294 338 5,100 -939 Descending Potomac TRACON
Mon 04:59:16 PM 38.9833 -76.4667 17° North 286 329 4,200 -574 Descending Potomac TRACON
Mon 05:00:16 PM 39.0500 -76.4500 11° North 274 315 4,000 -250 Descending Potomac TRACON
Mon 05:01:16 PM 39.1333 -76.4333 North 275 316 3,700 -667 Descending Potomac TRACON
Mon 05:02:22 PM 39.2167 -76.4333 360° North 246 283 2,600 -850 Descending Potomac TRACON
Mon 05:03:16 PM 39.2667 -76.4500 346° North 218 251 2,000 -500 Descending Potomac TRACON
Mon 05:04:22 PM 39.3167 -76.5000 322° Northwest 193 222 1,600 -476 Descending Potomac TRACON
Mon 05:05:22 PM 39.3500 -76.4667 38° Northeast 157 181 1,000 -600 Descending Potomac TRACON
Mon 05:07:00 PM 39.3257 -76.4138 123° Southeast  Level Estimated
Mon 05:14:00 PM 39.3257 -76.4138 123° Southeast  Level Estimated
Mon 05:15:00 PM 39.3257 -76.4138 123° Southeast  Level Estimated

Login

Don't have an account? Register now (free) for customized features, flight alerts, and more!